createdAt,value
2019-01-23T00:00:34.222Z,56.27
2019-01-23T00:01:14.835Z,56.37
2019-01-23T00:03:04.893Z,56.27
2019-01-23T00:03:45.491Z,56.37
2019-01-23T00:04:26.085Z,56.27
2019-01-23T00:05:06.746Z,56.17
2019-01-23T00:05:47.344Z,56.37
2019-01-23T00:06:27.949Z,56.27
2019-01-23T00:07:08.553Z,56.27
2019-01-23T00:07:49.155Z,56.27
2019-01-23T00:08:29.762Z,56.27
2019-01-23T00:09:10.365Z,56.17
2019-01-23T00:09:50.966Z,56.37
2019-01-23T00:10:31.563Z,56.37
2019-01-23T00:11:12.155Z,56.27
2019-01-23T00:11:52.767Z,56.37
2019-01-23T00:12:33.366Z,56.27
2019-01-23T00:13:13.973Z,56.17
2019-01-23T00:13:54.569Z,56.27
2019-01-23T00:14:35.181Z,56.17
2019-01-23T00:15:15.789Z,56.37
2019-01-23T00:15:56.398Z,56.37
2019-01-23T00:16:36.995Z,56.37
2019-01-23T00:17:17.583Z,56.56
2019-01-23T00:17:58.187Z,56.17
2019-01-23T00:18:38.782Z,56.37
2019-01-23T00:19:19.395Z,56.37
2019-01-23T00:19:59.993Z,56.27
2019-01-23T00:20:40.589Z,56.17
2019-01-23T00:21:21.195Z,56.17
2019-01-23T00:22:01.805Z,56.37
2019-01-23T00:22:42.433Z,56.17
2019-01-23T00:23:23.045Z,56.37
2019-01-23T00:24:03.641Z,56.46
2019-01-23T00:24:44.247Z,56.65
2019-01-23T00:25:24.851Z,56.46
2019-01-23T00:26:05.463Z,56.46
2019-01-23T00:26:46.050Z,56.37
2019-01-23T00:27:26.663Z,56.37
2019-01-23T00:28:07.263Z,56.56
2019-01-23T00:28:47.866Z,56.37
2019-01-23T00:29:28.509Z,56.46
2019-01-23T00:30:09.099Z,56.56
2019-01-23T00:30:49.711Z,56.37
2019-01-23T00:31:30.344Z,56.46
2019-01-23T00:32:10.941Z,56.56
2019-01-23T00:32:51.545Z,56.37
2019-01-23T00:33:32.149Z,56.17
2019-01-23T00:34:12.787Z,56.37
2019-01-23T00:34:53.418Z,56.46
2019-01-23T00:35:34.051Z,56.37
2019-01-23T00:36:14.657Z,56.46
2019-01-23T00:36:55.267Z,56.27
2019-01-23T00:37:35.866Z,56.94
2019-01-23T00:38:16.471Z,56.37
2019-01-23T00:38:57.113Z,56.27
2019-01-23T00:39:37.727Z,56.37
2019-01-23T00:40:18.333Z,57.13
2019-01-23T00:40:58.935Z,56.46
2019-01-23T00:41:39.539Z,56.37
2019-01-23T00:42:20.134Z,56.37
2019-01-23T00:43:00.725Z,56.46
2019-01-23T00:43:41.331Z,57.04
2019-01-23T00:44:21.935Z,56.46
2019-01-23T00:45:02.583Z,56.75
2019-01-23T00:45:43.207Z,56.56
2019-01-23T00:46:23.822Z,56.75
2019-01-23T00:47:04.437Z,56.94
2019-01-23T00:47:45.044Z,56.56
2019-01-23T00:48:25.635Z,56.75
2019-01-23T00:49:06.235Z,56.75
2019-01-23T00:49:46.848Z,56.56
2019-01-23T00:50:27.457Z,56.75
2019-01-23T00:51:08.047Z,56.94
2019-01-23T00:51:48.661Z,56.75
2019-01-23T00:52:29.267Z,56.46
2019-01-23T00:53:09.889Z,56.75
2019-01-23T00:53:50.495Z,56.75
2019-01-23T00:54:31.111Z,56.65
2019-01-23T00:55:11.726Z,56.65
2019-01-23T00:55:52.333Z,56.94
2019-01-23T00:56:32.971Z,56.65
2019-01-23T00:57:13.581Z,56.94
2019-01-23T00:57:54.173Z,56.65
2019-01-23T00:58:34.775Z,56.65
2019-01-23T00:59:15.378Z,56.65
2019-01-23T00:59:55.981Z,56.84
2019-01-23T01:00:36.571Z,56.84
2019-01-23T01:01:17.163Z,56.84
2019-01-23T01:01:57.773Z,56.84
2019-01-23T01:02:38.389Z,56.84
2019-01-23T01:03:18.999Z,56.84
2019-01-23T01:03:59.613Z,56.84
2019-01-23T01:04:40.231Z,56.84
2019-01-23T01:05:20.847Z,56.75
2019-01-23T01:06:01.454Z,56.75
2019-01-23T01:06:42.088Z,56.84
2019-01-23T01:07:22.707Z,56.84
2019-01-23T01:08:03.319Z,56.84
2019-01-23T01:08:43.911Z,56.94
2019-01-23T01:09:24.565Z,56.65
2019-01-23T01:10:05.185Z,56.94
2019-01-23T01:10:45.800Z,56.94
2019-01-23T01:11:26.389Z,56.84
2019-01-23T01:12:06.987Z,56.84
2019-01-23T01:12:47.632Z,56.75
2019-01-23T01:13:28.237Z,56.84
2019-01-23T01:14:08.877Z,56.84
2019-01-23T01:14:49.481Z,56.75
2019-01-23T01:15:30.154Z,56.75
2019-01-23T01:16:10.768Z,56.75
2019-01-23T01:16:51.366Z,56.75
2019-01-23T01:17:31.973Z,56.84
2019-01-23T01:18:12.575Z,56.65
2019-01-23T01:18:53.186Z,56.84
2019-01-23T01:19:33.779Z,56.94
2019-01-23T01:20:14.383Z,56.94
2019-01-23T01:20:55.039Z,56.65
2019-01-23T01:21:35.681Z,56.94
2019-01-23T01:22:16.297Z,56.84
2019-01-23T01:22:56.937Z,56.75
2019-01-23T01:23:37.556Z,56.84
2019-01-23T01:24:18.167Z,56.75
2019-01-23T01:24:58.779Z,56.75
2019-01-23T01:25:39.387Z,56.75
2019-01-23T01:26:20.007Z,56.75
2019-01-23T01:27:00.651Z,56.84
2019-01-23T01:27:41.259Z,56.75
2019-01-23T01:28:21.875Z,56.84
2019-01-23T01:29:02.479Z,56.75
2019-01-23T01:29:43.101Z,56.75
2019-01-23T01:30:23.714Z,56.84
2019-01-23T01:31:04.353Z,56.84
2019-01-23T01:31:44.986Z,56.84
2019-01-23T01:32:25.597Z,56.84
2019-01-23T01:33:06.224Z,56.84
2019-01-23T01:33:46.858Z,56.56
2019-01-23T01:34:27.470Z,56.84
2019-01-23T01:35:08.085Z,56.75
2019-01-23T01:35:48.687Z,56.56
2019-01-23T01:36:29.309Z,56.84
2019-01-23T01:37:09.908Z,56.75
2019-01-23T01:37:50.511Z,56.94
2019-01-23T01:38:31.111Z,56.75
2019-01-23T01:39:11.735Z,56.84
2019-01-23T01:39:52.341Z,56.84
2019-01-23T01:40:32.949Z,56.84
2019-01-23T01:41:13.593Z,56.84
2019-01-23T01:41:54.214Z,56.94
2019-01-23T01:42:34.803Z,56.84
2019-01-23T01:43:15.401Z,56.94
2019-01-23T01:43:56.053Z,56.65
2019-01-23T01:44:36.651Z,56.84
2019-01-23T01:45:17.259Z,56.75
2019-01-23T01:45:57.864Z,56.75
2019-01-23T01:46:38.466Z,56.84
2019-01-23T01:47:19.090Z,56.75
2019-01-23T01:47:59.715Z,56.84
2019-01-23T01:48:40.331Z,56.75
2019-01-23T01:49:20.955Z,56.75
2019-01-23T01:50:01.567Z,56.75
2019-01-23T01:50:42.181Z,56.75
2019-01-23T01:51:22.779Z,56.75
2019-01-23T01:52:03.379Z,57.04
2019-01-23T01:52:43.968Z,56.65
2019-01-23T01:53:24.597Z,56.84
2019-01-23T01:54:05.205Z,56.75
2019-01-23T01:54:45.815Z,56.75
2019-01-23T01:55:26.431Z,56.75
2019-01-23T01:56:07.061Z,56.84
2019-01-23T01:56:47.673Z,56.75
2019-01-23T01:57:28.285Z,56.84
2019-01-23T01:58:10.267Z,56.84
2019-01-23T01:58:49.510Z,56.56
2019-01-23T01:59:30.116Z,56.84
2019-01-23T02:00:10.737Z,56.75
2019-01-23T02:00:51.357Z,56.56
2019-01-23T02:01:31.983Z,56.56
2019-01-23T02:02:12.583Z,56.75
2019-01-23T02:02:53.177Z,56.65
2019-01-23T02:03:33.791Z,56.84
2019-01-23T02:04:14.403Z,56.84
2019-01-23T02:04:55.027Z,56.84
2019-01-23T02:05:35.630Z,56.75
2019-01-23T02:06:16.239Z,56.75
2019-01-23T02:06:56.861Z,56.84
2019-01-23T02:07:37.515Z,56.84
2019-01-23T02:08:18.119Z,56.75
2019-01-23T02:08:58.731Z,56.75
2019-01-23T02:09:39.337Z,56.65
2019-01-23T02:10:19.949Z,56.65
2019-01-23T02:11:00.551Z,56.84
2019-01-23T02:11:41.161Z,56.75
2019-01-23T02:12:21.771Z,56.84
2019-01-23T02:13:02.368Z,56.75
2019-01-23T02:13:42.989Z,57.04
2019-01-23T02:14:23.601Z,56.75
2019-01-23T02:15:04.211Z,56.65
2019-01-23T02:15:44.817Z,56.75
2019-01-23T02:16:25.426Z,56.84
2019-01-23T02:17:06.020Z,56.75
2019-01-23T02:17:46.613Z,56.75
2019-01-23T02:18:27.215Z,57.04
2019-01-23T02:19:07.811Z,56.84
2019-01-23T02:19:48.441Z,56.84
2019-01-23T02:20:29.031Z,56.75
2019-01-23T02:21:09.647Z,56.75
2019-01-23T02:21:50.277Z,56.75
2019-01-23T02:22:30.883Z,56.75
2019-01-23T02:23:11.489Z,56.56
2019-01-23T02:23:52.099Z,56.56
2019-01-23T02:24:32.707Z,56.75
2019-01-23T02:25:13.342Z,57.04
2019-01-23T02:25:53.955Z,57.04
2019-01-23T02:26:34.561Z,56.84
2019-01-23T02:27:15.191Z,56.84
2019-01-23T02:27:55.814Z,56.75
2019-01-23T02:28:36.407Z,56.46
2019-01-23T02:29:17.049Z,56.65
2019-01-23T02:29:57.655Z,56.56
2019-01-23T02:30:38.271Z,56.75
2019-01-23T02:31:18.875Z,56.84
2019-01-23T02:31:59.491Z,56.75
2019-01-23T02:32:40.112Z,56.65
2019-01-23T02:33:20.726Z,56.84
2019-01-23T02:34:01.357Z,56.84
2019-01-23T02:34:41.973Z,57.04
2019-01-23T02:35:22.589Z,56.84
2019-01-23T02:36:03.193Z,56.94
2019-01-23T02:36:43.825Z,56.84
2019-01-23T02:37:24.433Z,56.56
2019-01-23T02:38:05.037Z,56.75
2019-01-23T02:38:45.639Z,56.56
2019-01-23T02:39:26.250Z,56.65
2019-01-23T02:40:06.885Z,56.56
2019-01-23T02:40:47.495Z,56.56
2019-01-23T02:41:28.091Z,56.46
2019-01-23T02:42:08.709Z,56.46
2019-01-23T02:42:49.341Z,56.84
2019-01-23T02:43:29.963Z,56.84
2019-01-23T02:44:10.583Z,56.84
2019-01-23T02:44:51.221Z,56.84
2019-01-23T02:45:31.867Z,57.04
2019-01-23T02:46:12.481Z,56.75
2019-01-23T02:46:53.075Z,56.56
2019-01-23T02:47:33.737Z,56.56
2019-01-23T02:48:14.359Z,56.84
2019-01-23T02:48:54.970Z,56.75
2019-01-23T02:49:35.618Z,56.56
2019-01-23T02:50:16.224Z,56.65
2019-01-23T02:50:56.839Z,56.75
2019-01-23T02:51:37.451Z,56.65
2019-01-23T02:52:18.048Z,56.65
2019-01-23T02:53:09.902Z,56.75
2019-01-23T02:53:50.495Z,56.75
2019-01-23T02:54:31.106Z,56.65
2019-01-23T02:55:11.711Z,56.84
2019-01-23T02:55:52.317Z,56.56
2019-01-23T02:56:32.917Z,56.46
2019-01-23T02:57:13.564Z,56.75
2019-01-23T02:57:54.171Z,56.65
2019-01-23T02:58:34.771Z,56.75
2019-01-23T02:59:17.414Z,56.75
2019-01-23T02:59:56.033Z,56.56
2019-01-23T03:00:36.688Z,56.75
2019-01-23T03:01:17.294Z,56.65
2019-01-23T03:01:57.931Z,56.75
2019-01-23T03:02:38.545Z,56.65
2019-01-23T03:03:19.137Z,56.75
2019-01-23T03:03:59.747Z,56.65
2019-01-23T03:04:40.343Z,56.56
2019-01-23T03:05:20.967Z,56.65
2019-01-23T03:06:01.602Z,56.46
2019-01-23T03:06:42.209Z,56.65
2019-01-23T03:07:22.823Z,56.65
2019-01-23T03:08:03.447Z,56.65
2019-01-23T03:08:44.055Z,56.65
2019-01-23T03:09:24.651Z,56.65
2019-01-23T03:10:05.245Z,56.46
2019-01-23T03:10:45.849Z,56.65
2019-01-23T03:11:26.519Z,56.46
2019-01-23T03:12:07.121Z,56.65
2019-01-23T03:12:47.763Z,56.65
2019-01-23T03:13:28.416Z,56.65
2019-01-23T03:14:08.983Z,56.65
2019-01-23T03:14:49.611Z,56.75
2019-01-23T03:15:30.182Z,56.75
2019-01-23T03:16:10.790Z,56.65
2019-01-23T03:16:51.392Z,56.65
2019-01-23T03:17:32.050Z,56.65
2019-01-23T03:18:12.657Z,56.56
2019-01-23T03:18:53.250Z,56.65
2019-01-23T03:19:33.910Z,56.65
2019-01-23T03:20:14.528Z,56.65
2019-01-23T03:20:55.144Z,56.65
2019-01-23T03:21:35.780Z,56.75
2019-01-23T03:22:16.381Z,56.75
2019-01-23T03:22:56.980Z,56.65
2019-01-23T03:23:37.610Z,56.65
2019-01-23T03:24:18.214Z,56.65
2019-01-23T03:24:58.824Z,56.65
2019-01-23T03:25:39.427Z,56.65
2019-01-23T03:26:20.050Z,56.65
2019-01-23T03:27:00.704Z,56.75
2019-01-23T03:27:41.318Z,56.65
2019-01-23T03:28:21.928Z,56.65
2019-01-23T03:29:02.557Z,56.65
2019-01-23T03:29:43.154Z,56.75
2019-01-23T03:30:23.774Z,56.56
2019-01-23T03:31:04.384Z,56.84
2019-01-23T03:31:45.012Z,56.56
2019-01-23T03:32:25.628Z,56.46
2019-01-23T03:33:06.242Z,56.75
2019-01-23T03:33:46.940Z,56.46
2019-01-23T03:34:27.546Z,56.56
2019-01-23T03:35:08.146Z,56.46
2019-01-23T03:35:48.770Z,56.75
2019-01-23T03:36:29.373Z,56.84
2019-01-23T03:37:09.960Z,56.75
2019-01-23T03:37:50.563Z,56.65
2019-01-23T03:38:31.188Z,56.75
2019-01-23T03:39:11.796Z,56.46
2019-01-23T03:39:52.392Z,56.46
2019-01-23T03:40:32.990Z,56.46
2019-01-23T03:41:13.592Z,56.46
2019-01-23T03:41:54.185Z,56.84
2019-01-23T03:42:34.802Z,56.75
2019-01-23T03:43:15.396Z,56.56
2019-01-23T03:43:55.998Z,56.65
2019-01-23T03:44:36.618Z,56.56
2019-01-23T03:45:17.244Z,56.84
2019-01-23T03:45:57.857Z,56.84
2019-01-23T03:46:38.464Z,56.75
2019-01-23T03:47:19.064Z,56.75
2019-01-23T03:47:59.675Z,56.65
2019-01-23T03:48:40.336Z,56.65
2019-01-23T03:49:20.956Z,56.65
2019-01-23T03:50:01.594Z,56.65
2019-01-23T03:50:42.200Z,56.46
2019-01-23T03:51:22.800Z,56.65
2019-01-23T03:52:03.416Z,56.46
2019-01-23T03:52:44.024Z,56.46
2019-01-23T03:53:24.664Z,56.56
2019-01-23T03:54:05.243Z,56.75
2019-01-23T03:54:45.866Z,56.75
2019-01-23T03:55:26.478Z,56.56
2019-01-23T03:56:07.107Z,56.65
2019-01-23T03:56:47.716Z,56.75
2019-01-23T03:57:28.330Z,56.75
2019-01-23T03:58:08.949Z,56.84
2019-01-23T03:58:49.561Z,56.65
2019-01-23T03:59:32.227Z,56.75
2019-01-23T04:00:10.783Z,56.56
2019-01-23T04:00:51.396Z,56.56
2019-01-23T04:01:32.007Z,56.84
2019-01-23T04:02:12.653Z,56.65
2019-01-23T04:02:53.248Z,56.75
2019-01-23T04:03:33.867Z,56.75
2019-01-23T04:04:14.470Z,56.75
2019-01-23T04:04:55.089Z,56.75
2019-01-23T04:05:35.702Z,56.75
2019-01-23T04:06:16.316Z,56.46
2019-01-23T04:06:56.932Z,56.46
2019-01-23T04:07:37.552Z,56.75
2019-01-23T04:08:18.184Z,56.65
2019-01-23T04:08:58.802Z,56.75
2019-01-23T04:09:39.430Z,56.75
2019-01-23T04:10:20.045Z,56.75
2019-01-23T04:11:00.681Z,56.84
2019-01-23T04:11:41.295Z,56.65
2019-01-23T04:12:21.918Z,56.65
2019-01-23T04:13:02.566Z,56.75
2019-01-23T04:13:43.204Z,56.94
2019-01-23T04:14:23.817Z,56.75
2019-01-23T04:15:04.432Z,56.75
2019-01-23T04:15:45.040Z,56.75
2019-01-23T04:16:25.652Z,56.75
2019-01-23T04:17:06.256Z,56.75
2019-01-23T04:17:46.846Z,56.75
2019-01-23T04:18:27.452Z,56.75
2019-01-23T04:19:08.120Z,56.84
2019-01-23T04:19:48.738Z,56.84
2019-01-23T04:20:29.360Z,56.84
2019-01-23T04:21:09.980Z,56.75
2019-01-23T04:21:50.604Z,56.65
2019-01-23T04:22:31.529Z,56.75
2019-01-23T04:23:11.841Z,56.75
2019-01-23T04:23:52.447Z,56.75
2019-01-23T04:24:33.052Z,56.84
2019-01-23T04:25:13.682Z,56.75
2019-01-23T04:25:54.278Z,56.75
2019-01-23T04:26:34.898Z,56.65
2019-01-23T04:27:15.514Z,56.84
2019-01-23T04:27:56.112Z,56.84
2019-01-23T04:28:36.722Z,56.94
2019-01-23T04:29:17.353Z,56.84
2019-01-23T04:29:57.974Z,57.04
2019-01-23T04:30:38.592Z,56.56
2019-01-23T04:31:19.218Z,56.46
2019-01-23T04:31:59.822Z,56.56
2019-01-23T04:32:40.441Z,56.75
2019-01-23T04:33:21.055Z,56.65
2019-01-23T04:34:01.685Z,56.84
2019-01-23T04:34:42.292Z,56.94
2019-01-23T04:35:22.906Z,56.65
2019-01-23T04:36:03.538Z,56.65
2019-01-23T04:36:44.152Z,56.84
2019-01-23T04:37:24.772Z,56.84
2019-01-23T04:38:05.394Z,56.75
2019-01-23T04:38:45.998Z,56.75
2019-01-23T04:39:26.596Z,56.56
2019-01-23T04:40:07.206Z,56.46
2019-01-23T04:40:47.806Z,56.94
2019-01-23T04:41:28.428Z,56.65
2019-01-23T04:42:09.070Z,56.75
2019-01-23T04:42:49.679Z,56.75
2019-01-23T04:43:30.336Z,56.94
2019-01-23T04:44:10.970Z,56.56
2019-01-23T04:44:51.622Z,56.94
2019-01-23T04:45:32.242Z,56.56
2019-01-23T04:46:12.862Z,56.56
2019-01-23T04:46:53.474Z,56.65
2019-01-23T04:47:34.092Z,56.84
2019-01-23T04:48:14.718Z,56.46
2019-01-23T04:48:55.350Z,56.65
2019-01-23T04:49:35.964Z,56.75
2019-01-23T04:50:16.586Z,56.84
2019-01-23T04:50:57.187Z,56.94
2019-01-23T04:51:37.790Z,57.04
2019-01-23T04:52:18.396Z,56.75
2019-01-23T04:52:59.018Z,57.13
2019-01-23T04:53:39.659Z,57.13
2019-01-23T04:54:20.332Z,56.75
2019-01-23T04:55:00.899Z,56.75
2019-01-23T04:55:41.520Z,56.84
2019-01-23T04:56:22.138Z,56.84
2019-01-23T04:57:02.746Z,56.75
2019-01-23T04:57:43.351Z,56.75
2019-01-23T04:58:23.973Z,56.65
2019-01-23T04:59:04.618Z,56.75
2019-01-23T04:59:46.863Z,56.84
2019-01-23T05:00:25.874Z,56.65
2019-01-23T05:01:06.484Z,57.13
2019-01-23T05:01:47.080Z,57.13
2019-01-23T05:02:27.680Z,56.56
2019-01-23T05:03:08.274Z,56.46
2019-01-23T05:03:48.875Z,56.84
2019-01-23T05:04:29.502Z,57.32
2019-01-23T05:05:10.126Z,56.84
2019-01-23T05:05:50.772Z,57.61
2019-01-23T05:06:31.393Z,56.84
2019-01-23T05:07:12.028Z,57.42
2019-01-23T05:07:52.637Z,56.94
2019-01-23T05:08:33.253Z,57.04
2019-01-23T05:09:13.863Z,57.04
2019-01-23T05:09:54.511Z,57.23
2019-01-23T05:10:35.125Z,57.04
2019-01-23T05:11:15.755Z,57.23
2019-01-23T05:11:56.361Z,57.23
2019-01-23T05:12:36.972Z,57.04
2019-01-23T05:13:17.610Z,57.23
2019-01-23T05:13:58.239Z,57.04
2019-01-23T05:14:38.822Z,57.13
2019-01-23T05:15:19.445Z,57.32
2019-01-23T05:16:00.093Z,57.32
2019-01-23T05:16:40.696Z,57.13
2019-01-23T05:17:21.322Z,57.42
2019-01-23T05:18:01.924Z,57.42
2019-01-23T05:18:42.534Z,57.23
2019-01-23T05:19:23.139Z,57.42
2019-01-23T05:20:03.752Z,57.42
2019-01-23T05:20:44.384Z,57.32
2019-01-23T05:21:24.996Z,57.32
2019-01-23T05:22:05.620Z,57.32
2019-01-23T05:22:46.241Z,57.51
2019-01-23T05:23:26.852Z,57.32
2019-01-23T05:24:07.469Z,57.32
2019-01-23T05:24:48.094Z,57.51
2019-01-23T05:25:28.714Z,57.32
2019-01-23T05:26:09.314Z,57.13
2019-01-23T05:26:49.922Z,57.32
2019-01-23T05:27:30.528Z,57.23
2019-01-23T05:28:11.168Z,57.23
2019-01-23T05:28:51.767Z,57.13
2019-01-23T05:29:32.376Z,57.13
2019-01-23T05:30:12.985Z,57.32
2019-01-23T05:30:53.591Z,57.04
2019-01-23T05:31:34.202Z,57.04
2019-01-23T05:32:14.819Z,57.13
2019-01-23T05:32:55.427Z,57.13
2019-01-23T05:33:36.029Z,57.13
2019-01-23T05:34:16.639Z,57.13
2019-01-23T05:34:57.245Z,57.13
2019-01-23T05:35:37.856Z,57.04
2019-01-23T05:36:18.469Z,57.04
2019-01-23T05:36:59.087Z,57.04
2019-01-23T05:37:39.696Z,57.32
2019-01-23T05:38:20.287Z,57.13
2019-01-23T05:39:00.916Z,57.23
2019-01-23T05:39:41.525Z,57.23
2019-01-23T05:40:22.136Z,57.23
2019-01-23T05:41:02.752Z,57.13
2019-01-23T05:41:43.360Z,57.32
2019-01-23T05:42:23.964Z,57.42
2019-01-23T05:43:04.583Z,57.13
2019-01-23T05:43:45.207Z,57.13
2019-01-23T05:44:25.831Z,57.32
2019-01-23T05:45:06.474Z,57.23
2019-01-23T05:45:47.078Z,57.23
2019-01-23T05:46:27.674Z,57.32
2019-01-23T05:47:08.310Z,57.23
2019-01-23T05:47:48.909Z,57.23
2019-01-23T05:48:29.527Z,57.32
2019-01-23T05:49:10.128Z,57.42
2019-01-23T05:49:50.738Z,57.32
2019-01-23T05:50:31.368Z,57.32
2019-01-23T05:51:11.986Z,57.23
2019-01-23T05:51:52.589Z,57.42
2019-01-23T05:52:33.199Z,57.42
2019-01-23T05:53:13.825Z,57.32
2019-01-23T05:53:54.463Z,57.23
2019-01-23T05:54:35.089Z,57.32
2019-01-23T05:55:15.700Z,57.32
2019-01-23T05:55:56.327Z,57.23
2019-01-23T05:56:36.933Z,57.32
2019-01-23T05:57:17.567Z,57.23
2019-01-23T05:57:58.167Z,57.32
2019-01-23T05:58:38.770Z,57.32
2019-01-23T05:59:19.379Z,57.32
2019-01-23T06:00:02.345Z,57.23
2019-01-23T06:00:40.614Z,57.32
2019-01-23T06:01:21.258Z,57.04
2019-01-23T06:02:01.864Z,57.23
2019-01-23T06:02:42.489Z,57.32
2019-01-23T06:03:23.093Z,57.32
2019-01-23T06:04:03.716Z,57.13
2019-01-23T06:04:44.368Z,57.32
2019-01-23T06:05:24.980Z,57.32
2019-01-23T06:06:05.593Z,57.32
2019-01-23T06:06:46.229Z,57.23
2019-01-23T06:07:26.884Z,57.32
2019-01-23T06:08:07.526Z,57.23
2019-01-23T06:08:48.141Z,57.32
2019-01-23T06:09:28.755Z,57.23
2019-01-23T06:10:09.392Z,57.23
2019-01-23T06:10:49.997Z,57.32
2019-01-23T06:11:30.612Z,57.32
2019-01-23T06:12:11.207Z,57.23
2019-01-23T06:12:51.803Z,57.13
2019-01-23T06:13:32.414Z,57.23
2019-01-23T06:14:13.010Z,57.23
2019-01-23T06:14:53.615Z,57.23
2019-01-23T06:15:34.219Z,57.32
2019-01-23T06:16:14.831Z,57.23
2019-01-23T06:16:55.430Z,57.32
2019-01-23T06:17:36.055Z,57.23
2019-01-23T06:18:16.679Z,57.23
2019-01-23T06:18:57.318Z,57.32
2019-01-23T06:19:37.927Z,57.23
2019-01-23T06:20:18.546Z,57.32
2019-01-23T06:20:59.176Z,57.32
2019-01-23T06:21:39.787Z,57.42
2019-01-23T06:22:20.394Z,57.2
2019-01-23T06:23:01.046Z,57.23
2019-01-23T06:23:41.675Z,57.23
2019-01-23T06:24:22.279Z,57.13
2019-01-23T06:25:02.907Z,57.32
2019-01-23T06:25:43.520Z,57.51
2019-01-23T06:26:24.317Z,56.94
2019-01-23T06:27:04.930Z,57.42
2019-01-23T06:27:45.576Z,57.48
2019-01-23T06:28:26.196Z,57.61
2019-01-23T06:29:06.799Z,57.32
2019-01-23T06:29:47.421Z,57.61
2019-01-23T06:30:28.073Z,56.94
2019-01-23T06:31:08.678Z,57.32
2019-01-23T06:31:49.293Z,57.51
2019-01-23T06:32:29.901Z,57.01
2019-01-23T06:33:10.528Z,57.23
2019-01-23T06:33:51.128Z,57.2
2019-01-23T06:34:31.745Z,57.32
2019-01-23T06:35:12.385Z,57.32
2019-01-23T06:35:53.010Z,57.32
2019-01-23T06:36:33.619Z,57.23
2019-01-23T06:37:15.607Z,57.51
2019-01-23T06:37:54.835Z,57.23
2019-01-23T06:38:35.435Z,57.32
2019-01-23T06:39:16.057Z,57.01
2019-01-23T06:39:56.684Z,57.23
2019-01-23T06:40:37.284Z,57.2
2019-01-23T06:41:17.884Z,57.04
2019-01-23T06:41:58.491Z,57.23
2019-01-23T06:42:39.118Z,57.23
2019-01-23T06:43:19.735Z,57.2
2019-01-23T06:44:00.331Z,57.39
2019-01-23T06:44:40.930Z,57.39
2019-01-23T06:45:21.541Z,57.61
2019-01-23T06:46:02.160Z,57.23
2019-01-23T06:46:42.771Z,57.23
2019-01-23T06:47:23.383Z,57.42
2019-01-23T06:48:03.996Z,57.32
2019-01-23T06:48:44.611Z,57.04
2019-01-23T06:49:25.223Z,57.32
2019-01-23T06:50:05.829Z,57.23
2019-01-23T06:50:46.436Z,57.42
2019-01-23T06:51:27.114Z,57.2
2019-01-23T06:52:07.718Z,57.32
2019-01-23T06:52:48.343Z,57.42
2019-01-23T06:53:28.993Z,57.01
2019-01-23T06:54:09.653Z,57.61
2019-01-23T06:54:50.292Z,57.32
2019-01-23T06:55:30.935Z,57.48
2019-01-23T06:56:11.553Z,56.91
2019-01-23T06:56:52.152Z,57.32
2019-01-23T06:57:32.767Z,57.42
2019-01-23T06:58:13.372Z,57.32
2019-01-23T06:58:53.981Z,57.51
2019-01-23T06:59:34.590Z,57.13
2019-01-23T07:00:17.152Z,57.23
2019-01-23T07:00:55.804Z,57.61
2019-01-23T07:01:36.419Z,57.32
2019-01-23T07:02:17.033Z,56.91
2019-01-23T07:02:57.633Z,57.42
2019-01-23T07:03:38.229Z,57.32
2019-01-23T07:04:18.849Z,56.94
2019-01-23T07:04:59.477Z,56.94
2019-01-23T07:05:40.076Z,57.13
2019-01-23T07:06:20.687Z,57.23
2019-01-23T07:07:01.284Z,57.7
2019-01-23T07:07:41.901Z,57.13
2019-01-23T07:08:22.511Z,57.42
2019-01-23T07:09:03.134Z,57.23
2019-01-23T07:09:43.755Z,57.32
2019-01-23T07:10:24.400Z,56.94
2019-01-23T07:11:04.991Z,57.23
2019-01-23T07:11:45.590Z,57.1
2019-01-23T07:12:26.195Z,57.13
2019-01-23T07:13:06.802Z,57.13
2019-01-23T07:13:47.417Z,56.94
2019-01-23T07:14:28.007Z,57.13
2019-01-23T07:15:08.617Z,57.32
2019-01-23T07:15:49.232Z,57.32
2019-01-23T07:16:29.879Z,57.23
2019-01-23T07:17:10.468Z,57.32
2019-01-23T07:17:51.067Z,57.23
2019-01-23T07:18:31.691Z,57.23
2019-01-23T07:19:12.329Z,57.23
2019-01-23T07:19:52.933Z,57.32
2019-01-23T07:20:33.568Z,57.32
2019-01-23T07:21:14.181Z,57.13
2019-01-23T07:21:54.803Z,57.32
2019-01-23T07:22:35.409Z,57.23
2019-01-23T07:23:16.043Z,57.23
2019-01-23T07:23:57.449Z,57.23
2019-01-23T07:24:37.273Z,57.23
2019-01-23T07:25:17.947Z,57.23
2019-01-23T07:25:58.596Z,57.13
2019-01-23T07:26:39.191Z,57.51
2019-01-23T07:27:19.803Z,57.04
2019-01-23T07:28:00.401Z,57.61
2019-01-23T07:28:41.007Z,57.51
2019-01-23T07:29:21.607Z,57.51
2019-01-23T07:30:02.214Z,57.51
2019-01-23T07:30:42.819Z,57.51
2019-01-23T07:31:23.419Z,56.94
2019-01-23T07:32:04.033Z,56.94
2019-01-23T07:32:44.631Z,56.94
2019-01-23T07:33:25.235Z,57.32
2019-01-23T07:34:05.853Z,57.51
2019-01-23T07:34:46.479Z,56.94
2019-01-23T07:35:27.088Z,57.51
2019-01-23T07:36:07.687Z,57.61
2019-01-23T07:36:48.287Z,56.94
2019-01-23T07:37:28.911Z,57.04
2019-01-23T07:38:09.547Z,57.61
2019-01-23T07:38:50.235Z,57.51
2019-01-23T07:39:30.852Z,57.51
2019-01-23T07:40:11.448Z,57.51
2019-01-23T07:40:52.068Z,57.32
2019-01-23T07:41:32.751Z,57.42
2019-01-23T07:42:13.359Z,56.94
2019-01-23T07:42:53.965Z,56.94
2019-01-23T07:43:34.577Z,57.32
2019-01-23T07:44:15.179Z,57.51
2019-01-23T07:44:55.770Z,57.42
2019-01-23T07:45:36.372Z,57.32
2019-01-23T07:46:16.979Z,57.51
2019-01-23T07:46:57.586Z,57.51
2019-01-23T07:47:38.189Z,56.94
2019-01-23T07:48:18.801Z,57.23
2019-01-23T07:48:59.421Z,57.32
2019-01-23T07:49:40.023Z,57.42
2019-01-23T07:50:20.639Z,57.23
2019-01-23T07:51:01.255Z,57.23
2019-01-23T07:51:41.879Z,57.32
2019-01-23T07:52:22.481Z,57.13
2019-01-23T07:53:03.082Z,57.23
2019-01-23T07:53:43.805Z,57.13
2019-01-23T07:54:26.179Z,57.23
2019-01-23T07:55:07.135Z,57.32
2019-01-23T07:55:47.984Z,57.23
2019-01-23T07:56:28.627Z,57.23
2019-01-23T07:57:09.221Z,57.13
2019-01-23T07:57:49.849Z,57.32
2019-01-23T07:58:30.480Z,57.32
2019-01-23T07:59:11.079Z,57.23
2019-01-23T07:59:51.709Z,57.23
2019-01-23T08:00:32.325Z,57.23
2019-01-23T08:01:12.923Z,57.42
2019-01-23T08:01:53.551Z,57.13
2019-01-23T08:02:34.151Z,57.23
2019-01-23T08:03:14.792Z,57.51
2019-01-23T08:03:55.383Z,57.23
2019-01-23T08:04:35.989Z,57.23
2019-01-23T08:05:19.479Z,57.04
2019-01-23T08:05:57.313Z,57.23
2019-01-23T08:06:37.955Z,57.23
2019-01-23T08:07:18.573Z,57.32
2019-01-23T08:07:59.245Z,57.23
2019-01-23T08:08:39.853Z,57.32
2019-01-23T08:09:20.469Z,57.23
2019-01-23T08:10:01.087Z,57.32
2019-01-23T08:10:41.705Z,57.7
2019-01-23T08:11:22.363Z,58.28
2019-01-23T08:12:02.977Z,58.76
2019-01-23T08:12:43.593Z,59.05
2019-01-23T08:13:24.225Z,59.23
2019-01-23T08:14:04.832Z,60.29
2019-01-23T08:14:45.437Z,60.48
2019-01-23T08:15:26.039Z,60.48
2019-01-23T08:16:06.651Z,61.34
2019-01-23T08:16:47.263Z,61.54
2019-01-23T08:17:32.671Z,62.01
2019-01-23T08:18:08.481Z,63.16
2019-01-23T08:18:49.108Z,63.16
2019-01-23T08:19:29.715Z,63.06
2019-01-23T08:20:10.323Z,63.64
2019-01-23T08:20:50.949Z,63.93
2019-01-23T08:21:31.559Z,64.02
2019-01-23T08:22:12.158Z,64.12
2019-01-23T08:22:52.809Z,64.69
2019-01-23T08:23:33.413Z,65.17
2019-01-23T08:24:14.015Z,65.45
2019-01-23T08:24:54.664Z,65.65
2019-01-23T08:25:35.273Z,65.65
2019-01-23T08:26:15.872Z,66.13
2019-01-23T08:26:56.487Z,65.84
2019-01-23T08:27:37.085Z,66.22
2019-01-23T08:28:17.695Z,66.13
2019-01-23T08:28:58.309Z,66.89
2019-01-23T08:29:38.911Z,66.89
2019-01-23T08:30:19.518Z,66.8
2019-01-23T08:31:00.120Z,67.18
2019-01-23T08:31:40.729Z,67.66
2019-01-23T08:32:21.344Z,67.66
2019-01-23T08:33:01.983Z,68.62
2019-01-23T08:33:42.607Z,68.71
2019-01-23T08:34:23.241Z,68.52
2019-01-23T08:35:03.863Z,68.52
2019-01-23T08:35:44.459Z,69
2019-01-23T08:36:25.059Z,68.8
2019-01-23T08:37:05.710Z,69.48
2019-01-23T08:37:46.305Z,70.05
2019-01-23T08:38:26.911Z,69.76
2019-01-23T08:39:07.515Z,69.86
2019-01-23T08:39:48.112Z,69.86
2019-01-23T08:40:28.753Z,70.15
2019-01-23T08:41:09.379Z,70.43
2019-01-23T08:41:49.991Z,70.37
2019-01-23T08:42:30.589Z,70.53
2019-01-23T08:43:11.198Z,71.04
2019-01-23T08:43:51.795Z,71.01
2019-01-23T08:44:32.425Z,71.23
2019-01-23T08:45:13.045Z,71.04